Mansfield, Texas
Current Conditions -  °F | °C
As of 6:53 PM on Wednesday 22 Oct 2014 (Local Time) from KGKY Reporting Station
Clear Clear  
Wind Chill: 76°   Ceiling: Unl
Heat Index: 76°   Visibility: 10mi
Dew Point: 56°   Wind: 6mph
Humidity: 50%   Direction: 100°E
Pressure: 30.08"   Gusts: NA
Location:  32.56°N, 97.14°W
Report Text: KGKY 222353Z AUTO 10005KT 10SM CLR 24/13 A3008 RMK AO2 SLP181 T02440133 10267 20244 53002
Loading
Personal Weather Stations






























Interactive Weather Map
Tropical Storm Tracking
New forecast layout! Learn more

10-Day Weather Forecast

Advertisements
Track Severe Weather on mobile